EST,Max TemperatureF,Mean TemperatureF,Min TemperatureF,Max Dew PointF,MeanDew PointF,Min DewpointF,Max Humidity, Mean Humidity, Min Humidity, Max Sea Level PressureIn, Mean Sea Level PressureIn, Min Sea Level PressureIn, Max VisibilityMiles, Mean VisibilityMiles, Min VisibilityMiles, Max Wind SpeedMPH, Mean Wind SpeedMPH, Max Gust SpeedMPH,PrecipitationIn, CloudCover, Events, WindDirDegrees
2012-12-1,60,48,37,45,38,33,89,76,57,30.27,30.19,30.01,10,5,0,22,7,29,0.00,6,Fog,105
2012-12-2,59,54,50,54,50,46,94,84,69,30.12,30.00,29.93,10,5,0,20,11,31,0.12,7,Fog-Rain,231
2012-12-3,64,53,42,58,49,39,94,87,68,30.14,30.07,29.92,10,2,0,23,4,38,0.01,7,Fog,136
2012-12-4,63,52,41,54,46,32,82,74,63,30.12,29.99,29.91,10,9,2,20,14,26,0.17,5,Rain,254
2012-12-5,41,34,27,30,22,18,75,61,45,30.41,30.34,30.15,10,10,10,17,9,23,0.00,1,,346
2012-12-6,41,32,24,31,25,19,86,72,53,30.36,30.19,29.99,10,10,9,12,5,,0.00,2,,141
2012-12-7,45,41,37,41,38,31,89,83,73,29.99,29.93,29.89,9,3,1,8,3,,0.07,8,Rain,168
2012-12-8,44,40,37,40,36,29,86,80,73,30.18,29.94,29.82,10,7,1,12,7,,0.18,8,Rain,18
2012-12-9,41,38,35,36,32,27,93,79,65,30.19,29.97,29.65,10,6,0,14,7,22,0.10,8,Fog-Rain,64
2012-12-10,44,40,34,38,32,22,93,75,61,29.87,29.70,29.62,10,8,0,15,7,20,0.01,8,Fog-Rain,292
2012-12-11,37,32,27,27,22,19,75,64,50,30.17,30.04,29.88,10,10,10,16,7,,0.00,5,Snow,239
2012-12-12,44,36,27,27,23,21,81,69,47,30.39,30.32,30.19,10,9,6,15,11,,0.00,0,,208
2012-12-13,46,36,25,26,24,19,82,65,44,30.40,30.32,30.19,10,9,6,15,7,,0.00,0,,197
2012-12-14,50,39,28,32,27,24,82,70,48,30.26,30.22,30.19,10,8,4,9,6,,0.00,0,,193
2012-12-15,46,37,28,41,32,25,89,78,58,30.19,30.00,29.70,10,5,0,17,5,23,0.03,6,Fog-Rain,95
2012-12-16,54,50,46,49,45,38,93,81,69,29.69,29.64,29.59,10,6,2,16,7,21,0.23,8,Rain,217
2012-12-17,45,44,41,37,35,31,80,70,63,29.75,29.68,29.63,10,10,7,12,7,,0.00,8,,273
2012-12-18,44,40,35,34,30,26,86,70,51,29.78,29.73,29.64,10,8,3,13,7,,0.02,6,Rain,267
2012-12-19,42,37,32,36,33,27,87,82,67,30.14,29.96,29.74,7,4,2,8,2,,0.00,7,,319
2012-12-20,48,42,36,45,37,30,93,80,70,30.08,29.45,29.18,10,6,2,30,14,41,0.81,8,Rain-Snow,144
2012-12-21,36,34,32,31,28,23,89,79,66,29.88,29.41,29.19,10,5,1,26,15,40,0.02,8,Snow,298
2012-12-22,37,32,27,25,22,20,81,67,54,30.09,30.02,29.91,10,10,6,23,16,32,0.00,5,,284
2012-12-23,37,29,21,23,20,17,82,68,55,30.05,29.98,29.92,10,9,4,12,7,,0.00,2,,296
2012-12-24,36,30,24,27,24,17,82,75,64,30.03,29.91,29.82,10,7,1,13,7,21,0.00,7,Snow,35
2012-12-25,34,29,24,25,22,19,85,72,59,30.32,30.22,30.02,10,10,10,10,7,,0.02,6,,1
2012-12-26,33,30,28,25,23,20,86,76,61,30.26,29.93,29.82,10,4,0,26,16,34,0.00,8,Snow,23
2012-12-27,34,25,16,26,21,11,82,74,56,30.17,30.04,29.85,10,9,2,15,10,24,0.05,5,Snow,330
2012-12-28,30,21,12,23,16,6,85,77,66,30.21,30.10,29.95,10,6,0,8,1,,0.00,5,Fog-Snow,59
2012-12-29,30,27,21,25,23,15,86,80,71,30.07,29.87,29.80,10,4,1,12,8,,0.01,8,Snow,1
2012-12-30,30,24,17,25,19,11,86,76,69,30.32,30.24,30.09,10,7,2,18,10,,0.00,6,Rain-Snow,234
2012-12-31,37,28,18,27,22,12,78,69,61,30.19,30.02,29.94,10,8,5,20,13,,0.07,4,,238